createdAt,value
2023-05-04T00:02:04.188Z,99.90
2023-05-04T00:04:30.858Z,99.90
2023-05-04T00:06:57.519Z,99.90
2023-05-04T00:09:24.117Z,99.90
2023-05-04T00:11:50.830Z,99.90
2023-05-04T00:14:17.615Z,99.90
2023-05-04T00:16:44.390Z,99.90
2023-05-04T00:19:11.208Z,99.90
2023-05-04T00:21:37.947Z,99.90
2023-05-04T00:24:04.933Z,99.90
2023-05-04T00:26:31.543Z,99.90
2023-05-04T00:28:58.172Z,99.90
2023-05-04T00:31:24.824Z,99.90
2023-05-04T00:33:51.572Z,99.90
2023-05-04T00:36:18.196Z,99.90
2023-05-04T00:38:52.075Z,99.90
2023-05-04T00:41:19.759Z,99.90
2023-05-04T00:43:47.352Z,99.90
2023-05-04T00:46:14.754Z,99.90
2023-05-04T00:48:42.208Z,99.90
2023-05-04T00:51:11.815Z,99.90
2023-05-04T00:53:38.889Z,99.90
2023-05-04T00:56:07.510Z,99.90
2023-05-04T00:58:34.948Z,99.90
2023-05-04T01:01:03.308Z,99.90
2023-05-04T01:03:31.271Z,99.90
2023-05-04T01:06:44.046Z,99.90
2023-05-04T01:09:31.955Z,99.90
2023-05-04T01:12:08.829Z,99.90
2023-05-04T01:14:36.606Z,99.90
2023-05-04T01:17:07.606Z,99.90
2023-05-04T01:19:35.060Z,99.90
2023-05-04T01:22:01.731Z,99.90
2023-05-04T01:24:29.213Z,99.90
2023-05-04T01:27:09.458Z,99.90
2023-05-04T01:30:00.777Z,99.90
2023-05-04T01:32:31.985Z,99.90
2023-05-04T01:34:59.608Z,99.90
2023-05-04T01:37:26.454Z,99.90
2023-05-04T01:39:53.046Z,99.90
2023-05-04T01:42:19.762Z,99.90
2023-05-04T01:44:46.470Z,99.90
2023-05-04T01:47:13.085Z,99.90
2023-05-04T01:49:39.771Z,99.90
2023-05-04T01:52:06.691Z,99.90
2023-05-04T01:54:33.304Z,99.90
2023-05-04T01:56:59.894Z,99.90
2023-05-04T01:59:26.632Z,99.90
2023-05-04T02:01:53.312Z,99.90
2023-05-04T02:04:19.904Z,99.90
2023-05-04T02:06:47.848Z,99.90
2023-05-04T02:09:14.492Z,99.90
2023-05-04T02:11:41.357Z,99.90
2023-05-04T02:14:07.998Z,99.90
2023-05-04T02:16:34.672Z,99.90
2023-05-04T02:19:01.330Z,99.90
2023-05-04T02:21:28.039Z,99.90
2023-05-04T02:23:54.662Z,99.90
2023-05-04T02:26:21.296Z,99.90
2023-05-04T02:28:47.884Z,99.90
2023-05-04T02:31:14.625Z,99.90
2023-05-04T02:33:41.241Z,99.90
2023-05-04T02:36:09.118Z,99.90
2023-05-04T02:38:35.814Z,99.90
2023-05-04T02:41:03.015Z,99.90
2023-05-04T02:43:29.666Z,99.90
2023-05-04T02:45:56.347Z,99.90
2023-05-04T02:48:24.469Z,99.90
2023-05-04T02:50:51.734Z,99.90
2023-05-04T02:53:18.319Z,99.90
2023-05-04T02:55:44.913Z,99.90
2023-05-04T02:58:11.580Z,99.90
2023-05-04T03:00:38.177Z,99.90
2023-05-04T03:03:04.817Z,99.90
2023-05-04T03:05:31.572Z,99.90
2023-05-04T03:07:58.181Z,99.90
2023-05-04T03:10:24.834Z,99.90
2023-05-04T03:12:51.465Z,99.90
2023-05-04T03:15:18.162Z,99.90
2023-05-04T03:17:44.830Z,99.90
2023-05-04T03:20:12.877Z,99.90
2023-05-04T03:22:39.483Z,99.90
2023-05-04T03:25:07.028Z,99.90
2023-05-04T03:27:33.674Z,99.90
2023-05-04T03:30:00.441Z,99.90
2023-05-04T03:32:27.077Z,99.90
2023-05-04T03:34:53.701Z,99.90
2023-05-04T03:37:20.315Z,99.90
2023-05-04T03:39:46.950Z,99.90
2023-05-04T03:42:13.520Z,99.90
2023-05-04T03:44:40.774Z,99.90
2023-05-04T03:47:07.745Z,99.90
2023-05-04T03:49:35.218Z,99.90
2023-05-04T03:52:01.918Z,99.90
2023-05-04T03:54:28.596Z,99.90
2023-05-04T03:56:55.295Z,99.90
2023-05-04T03:59:21.960Z,99.90
2023-05-04T04:01:48.568Z,99.90
2023-05-04T04:04:15.271Z,99.90
2023-05-04T04:06:43.416Z,99.90
2023-05-04T04:09:10.326Z,99.90
2023-05-04T04:11:36.971Z,99.90
2023-05-04T04:14:03.677Z,99.90
2023-05-04T04:16:30.766Z,99.90
2023-05-04T04:18:58.009Z,99.90
2023-05-04T04:21:24.832Z,99.90
2023-05-04T04:23:51.707Z,99.90
2023-05-04T04:26:18.370Z,99.90
2023-05-04T04:28:50.212Z,99.90
2023-05-04T04:31:18.797Z,99.90
2023-05-04T04:33:45.442Z,99.90
2023-05-04T04:36:12.637Z,99.90
2023-05-04T04:38:39.785Z,99.90
2023-05-04T04:41:06.458Z,99.90
2023-05-04T04:43:33.688Z,99.90
2023-05-04T04:46:00.415Z,99.90
2023-05-04T04:48:27.022Z,99.90
2023-05-04T04:50:53.982Z,99.90
2023-05-04T04:53:20.649Z,99.90
2023-05-04T04:55:47.241Z,99.90
2023-05-04T04:58:13.857Z,99.90
2023-05-04T05:00:40.509Z,99.90
2023-05-04T05:03:07.241Z,99.90
2023-05-04T05:05:33.942Z,99.90
2023-05-04T05:08:00.584Z,99.90
2023-05-04T05:10:27.199Z,99.90
2023-05-04T05:12:53.936Z,99.90
2023-05-04T05:15:20.604Z,99.90
2023-05-04T05:17:47.239Z,99.90
2023-05-04T05:20:15.156Z,99.90
2023-05-04T05:22:42.860Z,99.90
2023-05-04T05:25:09.685Z,99.90
2023-05-04T05:27:36.814Z,99.90
2023-05-04T05:30:05.591Z,99.90
2023-05-04T05:32:32.793Z,99.90
2023-05-04T05:34:59.539Z,99.90
2023-05-04T05:37:26.301Z,99.90
2023-05-04T05:39:53.011Z,99.90
2023-05-04T05:42:20.189Z,99.90
2023-05-04T05:44:46.863Z,99.90
2023-05-04T05:47:13.691Z,99.90
2023-05-04T05:49:41.532Z,99.90
2023-05-04T05:52:08.806Z,99.90
2023-05-04T05:54:35.543Z,99.90
2023-05-04T05:57:02.393Z,99.90
2023-05-04T05:59:29.019Z,99.90
2023-05-04T06:01:56.073Z,99.90
2023-05-04T06:04:22.781Z,99.90
2023-05-04T06:06:49.538Z,99.90
2023-05-04T06:09:16.836Z,99.90
2023-05-04T06:11:43.488Z,99.90
2023-05-04T06:14:10.127Z,99.90
2023-05-04T06:16:36.953Z,99.90
2023-05-04T06:19:03.603Z,99.90
2023-05-04T06:21:30.228Z,99.90
2023-05-04T06:23:56.832Z,99.90
2023-05-04T06:26:23.671Z,99.90
2023-05-04T06:28:50.268Z,99.90
2023-05-04T06:31:16.909Z,99.90
2023-05-04T06:33:43.658Z,99.90
2023-05-04T06:36:11.777Z,99.90
2023-05-04T06:38:39.215Z,99.90
2023-05-04T06:41:06.197Z,99.90
2023-05-04T06:43:33.408Z,99.90
2023-05-04T06:46:03.823Z,99.90
2023-05-04T06:48:31.726Z,99.90
2023-05-04T06:51:00.206Z,99.90
2023-05-04T06:53:29.142Z,99.90
2023-05-04T06:55:55.998Z,99.90
2023-05-04T06:58:23.463Z,99.90
2023-05-04T07:00:50.907Z,99.90
2023-05-04T07:03:17.776Z,99.90
2023-05-04T07:05:51.489Z,99.90
2023-05-04T07:08:19.558Z,99.90
2023-05-04T07:10:46.469Z,99.90
2023-05-04T07:13:14.318Z,99.90
2023-05-04T07:15:40.975Z,99.90
2023-05-04T07:18:07.689Z,99.90
2023-05-04T07:20:34.368Z,99.90
2023-05-04T07:23:01.071Z,99.90
2023-05-04T07:25:28.454Z,99.90
2023-05-04T07:27:55.377Z,99.90
2023-05-04T07:30:22.363Z,99.90
2023-05-04T07:32:49.078Z,99.90
2023-05-04T07:35:15.972Z,99.90
2023-05-04T07:37:42.588Z,99.90
2023-05-04T07:40:10.312Z,99.90
2023-05-04T07:42:37.031Z,99.90
2023-05-04T07:45:04.138Z,99.90
2023-05-04T07:47:30.811Z,99.90
2023-05-04T07:49:57.426Z,99.90
2023-05-04T07:52:24.367Z,99.90
2023-05-04T07:54:54.633Z,99.90
2023-05-04T07:57:21.883Z,99.90
2023-05-04T07:59:48.667Z,99.90
2023-05-04T08:02:15.807Z,99.90
2023-05-04T08:04:42.545Z,99.90
2023-05-04T08:07:09.272Z,99.90
2023-05-04T08:09:35.958Z,99.90
2023-05-04T08:12:04.287Z,99.90
2023-05-04T08:14:30.925Z,99.90
2023-05-04T08:16:57.536Z,99.90
2023-05-04T08:19:24.510Z,99.90
2023-05-04T08:21:51.210Z,99.90
2023-05-04T08:24:18.445Z,99.90
2023-05-04T08:26:49.556Z,99.90
2023-05-04T08:29:22.710Z,99.90
2023-05-04T08:31:49.648Z,99.90
2023-05-04T08:34:16.498Z,99.90
2023-05-04T08:36:43.119Z,99.90
2023-05-04T08:39:11.847Z,99.90
2023-05-04T08:41:41.785Z,99.90
2023-05-04T08:44:10.760Z,99.90
2023-05-04T08:46:40.890Z,99.90
2023-05-04T08:49:07.811Z,99.90
2023-05-04T08:51:37.150Z,99.90
2023-05-04T08:54:09.606Z,99.90
2023-05-04T08:56:38.131Z,99.90
2023-05-04T08:59:05.892Z,99.90
2023-05-04T09:01:33.470Z,99.90
2023-05-04T09:04:03.024Z,99.90
2023-05-04T09:06:31.424Z,99.90
2023-05-04T09:08:58.157Z,99.90
2023-05-04T09:11:24.768Z,99.90
2023-05-04T09:13:51.528Z,99.90
2023-05-04T09:16:19.849Z,99.90
2023-05-04T09:18:46.642Z,99.90
2023-05-04T09:21:13.631Z,99.90
2023-05-04T09:23:51.323Z,99.90
2023-05-04T09:26:31.098Z,99.90
2023-05-04T09:29:09.702Z,99.90
2023-05-04T09:31:52.657Z,99.90
2023-05-04T09:34:21.260Z,99.90
2023-05-04T09:37:01.949Z,99.90
2023-05-04T09:39:29.275Z,99.90
2023-05-04T09:41:56.738Z,99.90
2023-05-04T09:44:25.437Z,99.90
2023-05-04T09:46:55.362Z,99.90
2023-05-04T09:49:35.347Z,99.90
2023-05-04T09:52:03.870Z,99.90
2023-05-04T09:54:35.780Z,99.90
2023-05-04T09:57:15.656Z,99.90
2023-05-04T09:59:43.345Z,99.90
2023-05-04T10:02:21.822Z,99.90
2023-05-04T10:04:51.496Z,99.90
2023-05-04T10:07:19.068Z,99.90
2023-05-04T10:09:48.501Z,99.90
2023-05-04T10:12:15.220Z,99.90
2023-05-04T10:14:46.549Z,99.90
2023-05-04T10:17:47.886Z,99.90
2023-05-04T10:20:33.128Z,99.90
2023-05-04T10:23:29.982Z,99.90
2023-05-04T10:26:22.339Z,99.90
2023-05-04T10:28:57.850Z,99.90
2023-05-04T10:31:24.607Z,99.90
2023-05-04T10:33:51.617Z,99.90
2023-05-04T10:36:18.288Z,99.90
2023-05-04T10:38:44.917Z,99.90
2023-05-04T10:41:19.452Z,99.90
2023-05-04T10:43:52.950Z,99.90
2023-05-04T10:46:21.252Z,99.90
2023-05-04T10:48:48.468Z,99.90
2023-05-04T10:51:22.478Z,99.90
2023-05-04T10:53:49.825Z,99.90
2023-05-04T10:56:27.674Z,99.90
2023-05-04T10:58:55.029Z,99.90
2023-05-04T11:01:22.336Z,99.90
2023-05-04T11:03:49.589Z,99.90
2023-05-04T11:06:24.057Z,99.90
2023-05-04T11:09:01.786Z,99.90
2023-05-04T11:11:28.653Z,99.90
2023-05-04T11:13:56.437Z,99.90
2023-05-04T11:16:24.344Z,99.90
2023-05-04T11:18:51.177Z,99.90
2023-05-04T11:21:25.691Z,99.90
2023-05-04T11:23:56.285Z,99.90
2023-05-04T11:26:24.237Z,99.90
2023-05-04T11:28:51.160Z,99.90
2023-05-04T11:31:19.531Z,99.90
2023-05-04T11:33:54.872Z,99.90
2023-05-04T11:36:22.630Z,99.90
2023-05-04T11:38:49.750Z,99.90
2023-05-04T11:41:16.579Z,99.90
2023-05-04T11:43:45.221Z,99.90
2023-05-04T11:46:12.699Z,99.90
2023-05-04T11:48:39.944Z,99.90
2023-05-04T11:51:07.006Z,99.90
2023-05-04T11:53:38.730Z,99.90
2023-05-04T11:56:06.811Z,99.90
2023-05-04T11:58:33.504Z,99.90
2023-05-04T12:01:00.324Z,99.90
2023-05-04T12:03:39.682Z,99.90
2023-05-04T12:06:16.372Z,99.90
2023-05-04T12:08:43.291Z,99.90
2023-05-04T12:11:14.829Z,99.90
2023-05-04T12:13:42.464Z,99.90
2023-05-04T12:16:20.126Z,99.90
2023-05-04T12:18:47.970Z,99.90
2023-05-04T12:21:18.498Z,99.90
2023-05-04T12:23:46.799Z,99.90
2023-05-04T12:26:14.190Z,99.90
2023-05-04T12:28:41.885Z,99.90
2023-05-04T12:31:08.795Z,99.90
2023-05-04T12:33:36.073Z,99.90
2023-05-04T12:36:05.180Z,99.90
2023-05-04T12:38:32.124Z,99.90
2023-05-04T12:41:02.157Z,99.90
2023-05-04T12:43:29.146Z,99.90
2023-05-04T12:45:55.898Z,99.90
2023-05-04T12:48:22.620Z,99.90
2023-05-04T12:50:50.441Z,99.90
2023-05-04T12:53:18.321Z,99.90
2023-05-04T12:55:45.233Z,99.90
2023-05-04T12:58:11.870Z,99.90
2023-05-04T13:00:39.084Z,99.90
2023-05-04T13:03:06.330Z,99.90
2023-05-04T13:05:33.437Z,99.90
2023-05-04T13:08:00.166Z,99.90
2023-05-04T13:10:26.996Z,99.90
2023-05-04T13:12:53.890Z,99.90
2023-05-04T13:15:20.580Z,99.80
2023-05-04T13:17:47.255Z,99.70
2023-05-04T13:20:15.977Z,99.90
2023-05-04T13:22:44.939Z,99.90
2023-05-04T13:25:11.612Z,99.90
2023-05-04T13:27:38.361Z,99.90
2023-05-04T13:30:05.916Z,99.60
2023-05-04T13:32:33.040Z,99.90
2023-05-04T13:34:59.793Z,99.90
2023-05-04T13:37:26.424Z,99.00
2023-05-04T13:39:53.097Z,98.40
2023-05-04T13:42:19.709Z,98.70
2023-05-04T13:44:47.371Z,98.30
2023-05-04T13:47:17.422Z,98.50
2023-05-04T13:49:44.334Z,98.30
2023-05-04T13:52:11.059Z,97.90
2023-05-04T13:54:37.789Z,98.10
2023-05-04T13:57:04.460Z,97.90
2023-05-04T13:59:31.196Z,97.90
2023-05-04T14:01:57.864Z,96.30
2023-05-04T14:04:24.678Z,93.90
2023-05-04T14:06:51.933Z,94.20
2023-05-04T14:09:19.219Z,94.20
2023-05-04T14:11:47.162Z,93.00
2023-05-04T14:14:13.957Z,93.70
2023-05-04T14:16:41.016Z,92.50
2023-05-04T14:19:07.752Z,92.50
2023-05-04T14:21:36.305Z,92.90
2023-05-04T14:24:03.521Z,93.30
2023-05-04T14:26:32.351Z,93.10
2023-05-04T14:28:59.262Z,92.00
2023-05-04T14:31:26.168Z,91.50
2023-05-04T14:33:54.182Z,91.40
2023-05-04T14:36:23.190Z,91.90
2023-05-04T14:38:49.849Z,91.30
2023-05-04T14:41:16.516Z,91.60
2023-05-04T14:43:43.324Z,90.60
2023-05-04T14:46:10.142Z,89.70
2023-05-04T14:48:36.911Z,90.30
2023-05-04T14:51:03.758Z,90.40
2023-05-04T14:53:34.152Z,86.40
2023-05-04T14:56:01.277Z,90.50
2023-05-04T14:58:28.798Z,90.20
2023-05-04T15:00:55.671Z,88.50
2023-05-04T15:03:22.428Z,87.60
2023-05-04T15:05:49.243Z,87.60
2023-05-04T15:08:15.852Z,87.80
2023-05-04T15:10:42.470Z,87.00
2023-05-04T15:13:09.244Z,83.70
2023-05-04T15:15:40.307Z,85.30
2023-05-04T15:18:07.323Z,83.50
2023-05-04T15:20:38.218Z,83.50
2023-05-04T15:23:10.404Z,82.90
2023-05-04T15:25:38.709Z,82.30
2023-05-04T15:28:10.647Z,82.20
2023-05-04T15:30:41.252Z,80.50
2023-05-04T15:33:08.800Z,80.50
2023-05-04T15:35:36.542Z,80.30
2023-05-04T15:38:03.282Z,77.50
2023-05-04T15:40:30.154Z,77.30
2023-05-04T15:42:56.775Z,77.60
2023-05-04T15:45:23.462Z,76.40
2023-05-04T15:47:50.224Z,74.60
2023-05-04T15:50:16.932Z,75.30
2023-05-04T15:52:43.568Z,74.90
2023-05-04T15:55:24.410Z,73.10
2023-05-04T15:57:52.525Z,72.80
2023-05-04T16:00:19.634Z,73.60
2023-05-04T16:02:46.375Z,72.90
2023-05-04T16:05:13.266Z,72.70
2023-05-04T16:07:39.976Z,70.80
2023-05-04T16:10:07.311Z,71.30
2023-05-04T16:12:34.297Z,69.80
2023-05-04T16:15:01.169Z,68.70
2023-05-04T16:17:29.203Z,68.80
2023-05-04T16:19:56.028Z,68.60
2023-05-04T16:22:22.688Z,68.10
2023-05-04T16:24:49.286Z,67.60
2023-05-04T16:27:16.568Z,68.20
2023-05-04T16:29:43.188Z,66.30
2023-05-04T16:32:09.798Z,66.60
2023-05-04T16:34:36.453Z,65.90
2023-05-04T16:37:03.135Z,66.10
2023-05-04T16:39:34.279Z,65.60
2023-05-04T16:42:02.114Z,64.50
2023-05-04T16:44:31.296Z,63.50
2023-05-04T16:47:00.879Z,62.80
2023-05-04T16:49:27.576Z,62.30
2023-05-04T16:51:55.210Z,62.60
2023-05-04T16:54:23.976Z,63.50
2023-05-04T16:56:50.845Z,62.80
2023-05-04T16:59:17.564Z,62.50
2023-05-04T17:01:44.427Z,62.00
2023-05-04T17:04:11.665Z,62.60
2023-05-04T17:06:38.449Z,62.20
2023-05-04T17:09:05.556Z,62.10
2023-05-04T17:11:32.330Z,62.30
2023-05-04T17:13:59.742Z,62.80
2023-05-04T17:16:26.574Z,62.10
2023-05-04T17:18:53.259Z,62.60
2023-05-04T17:21:19.913Z,62.60
2023-05-04T17:23:46.589Z,62.00
2023-05-04T17:26:13.301Z,62.10
2023-05-04T17:28:39.976Z,61.50
2023-05-04T17:31:10.852Z,61.50
2023-05-04T17:33:37.477Z,62.70
2023-05-04T17:36:05.893Z,62.20
2023-05-04T17:38:32.558Z,62.20
2023-05-04T17:40:59.269Z,61.70
2023-05-04T17:43:26.197Z,62.30
2023-05-04T17:45:55.500Z,62.80
2023-05-04T17:48:23.900Z,63.70
2023-05-04T17:50:50.990Z,62.90
2023-05-04T17:53:17.676Z,64.60
2023-05-04T17:55:44.359Z,64.10
2023-05-04T17:58:12.553Z,63.60
2023-05-04T18:00:39.210Z,63.90
2023-05-04T18:03:06.096Z,64.10
2023-05-04T18:05:32.776Z,64.70
2023-05-04T18:07:59.450Z,64.10
2023-05-04T18:10:26.179Z,64.30
2023-05-04T18:12:52.978Z,64.10
2023-05-04T18:15:19.782Z,64.30
2023-05-04T18:17:46.511Z,64.10
2023-05-04T18:20:13.655Z,64.30
2023-05-04T18:22:41.173Z,64.70
2023-05-04T18:25:08.701Z,65.30
2023-05-04T18:27:35.821Z,65.80
2023-05-04T18:30:03.932Z,65.70
2023-05-04T18:32:30.693Z,66.00
2023-05-04T18:34:57.937Z,66.50
2023-05-04T18:37:25.475Z,67.00
2023-05-04T18:39:52.253Z,68.00
2023-05-04T18:42:18.932Z,67.70
2023-05-04T18:44:45.887Z,67.50
2023-05-04T18:47:12.590Z,67.30
2023-05-04T18:49:39.228Z,67.40
2023-05-04T18:52:06.057Z,67.70
2023-05-04T18:54:33.011Z,68.60
2023-05-04T18:56:59.708Z,68.40
2023-05-04T18:59:26.426Z,68.00
2023-05-04T19:01:53.459Z,68.00
2023-05-04T19:04:20.341Z,68.00
2023-05-04T19:06:47.723Z,67.20
2023-05-04T19:09:14.816Z,67.40
2023-05-04T19:11:42.790Z,67.50
2023-05-04T19:14:09.447Z,66.30
2023-05-04T19:16:36.123Z,66.80
2023-05-04T19:19:03.336Z,66.80
2023-05-04T19:21:29.997Z,67.50
2023-05-04T19:23:56.736Z,67.70
2023-05-04T19:26:23.474Z,67.50
2023-05-04T19:28:50.655Z,67.80
2023-05-04T19:31:17.610Z,68.00
2023-05-04T19:33:48.601Z,67.20
2023-05-04T19:36:16.795Z,67.70
2023-05-04T19:38:43.544Z,67.60
2023-05-04T19:41:10.312Z,68.30
2023-05-04T19:43:38.726Z,68.80
2023-05-04T19:46:05.862Z,69.40
2023-05-04T19:48:32.908Z,70.10
2023-05-04T19:50:59.936Z,70.60
2023-05-04T19:53:26.898Z,70.50
2023-05-04T19:55:54.028Z,71.00
2023-05-04T19:58:21.981Z,71.80
2023-05-04T20:00:48.780Z,72.40
2023-05-04T20:03:16.925Z,72.90
2023-05-04T20:05:43.635Z,73.40
2023-05-04T20:08:10.953Z,72.90
2023-05-04T20:10:37.816Z,72.50
2023-05-04T20:13:05.897Z,74.00
2023-05-04T20:15:32.929Z,75.00
2023-05-04T20:17:59.719Z,75.40
2023-05-04T20:20:26.754Z,75.60
2023-05-04T20:22:53.793Z,75.80
2023-05-04T20:25:23.631Z,76.30
2023-05-04T20:27:52.760Z,76.70
2023-05-04T20:30:19.695Z,77.20
2023-05-04T20:32:49.575Z,77.50
2023-05-04T20:35:19.660Z,77.20
2023-05-04T20:37:46.592Z,77.00
2023-05-04T20:40:13.559Z,77.40
2023-05-04T20:42:40.669Z,77.40
2023-05-04T20:45:08.492Z,77.80
2023-05-04T20:47:35.220Z,78.20
2023-05-04T20:50:02.062Z,78.60
2023-05-04T20:52:28.826Z,78.70
2023-05-04T20:54:55.505Z,79.00
2023-05-04T20:57:22.179Z,78.70
2023-05-04T20:59:48.804Z,79.50
2023-05-04T21:02:15.663Z,79.80
2023-05-04T21:04:43.307Z,80.10
2023-05-04T21:07:09.963Z,80.70
2023-05-04T21:09:36.652Z,81.00
2023-05-04T21:12:03.745Z,81.30
2023-05-04T21:14:30.713Z,81.90
2023-05-04T21:16:57.436Z,82.40
2023-05-04T21:19:24.131Z,82.90
2023-05-04T21:21:50.777Z,82.80
2023-05-04T21:24:17.465Z,83.00
2023-05-04T21:26:45.505Z,83.30
2023-05-04T21:29:15.295Z,83.60
2023-05-04T21:31:43.035Z,83.10
2023-05-04T21:34:10.268Z,84.50
2023-05-04T21:36:38.890Z,85.40
2023-05-04T21:39:05.934Z,85.60
2023-05-04T21:41:32.648Z,85.70
2023-05-04T21:43:59.265Z,86.00
2023-05-04T21:46:25.941Z,86.40
2023-05-04T21:48:52.583Z,86.90
2023-05-04T21:51:20.783Z,87.80
2023-05-04T21:53:47.926Z,88.40
2023-05-04T21:56:15.375Z,89.00
2023-05-04T21:58:42.954Z,89.70
2023-05-04T22:01:14.653Z,90.00
2023-05-04T22:03:44.680Z,90.40
2023-05-04T22:06:11.845Z,90.30
2023-05-04T22:08:38.533Z,90.40
2023-05-04T22:11:05.922Z,90.60
2023-05-04T22:13:32.551Z,90.90
2023-05-04T22:15:59.189Z,91.00
2023-05-04T22:18:25.886Z,91.20
2023-05-04T22:20:52.492Z,91.30
2023-05-04T22:23:19.101Z,91.40
2023-05-04T22:25:45.873Z,91.50
2023-05-04T22:28:12.555Z,91.60
2023-05-04T22:30:39.816Z,91.70
2023-05-04T22:33:06.620Z,91.90
2023-05-04T22:35:33.314Z,92.10
2023-05-04T22:37:59.951Z,92.30
2023-05-04T22:40:26.714Z,92.40
2023-05-04T22:42:53.376Z,92.50
2023-05-04T22:45:20.140Z,92.60
2023-05-04T22:47:47.168Z,92.80
2023-05-04T22:50:14.280Z,92.90
2023-05-04T22:52:41.332Z,93.10
2023-05-04T22:55:08.921Z,93.70
2023-05-04T22:57:35.864Z,93.60
2023-05-04T23:00:07.469Z,93.80
2023-05-04T23:02:35.143Z,94.00
2023-05-04T23:05:01.944Z,94.30
2023-05-04T23:07:28.554Z,94.40
2023-05-04T23:09:55.298Z,94.90
2023-05-04T23:12:21.960Z,94.80
2023-05-04T23:14:52.183Z,95.00
2023-05-04T23:17:19.460Z,95.30
2023-05-04T23:19:46.102Z,95.50
2023-05-04T23:22:13.324Z,95.70
2023-05-04T23:24:40.069Z,95.90
2023-05-04T23:27:06.919Z,96.10
2023-05-04T23:29:33.798Z,96.30
2023-05-04T23:32:00.650Z,96.50
2023-05-04T23:34:27.394Z,96.80
2023-05-04T23:36:54.624Z,96.90
2023-05-04T23:39:21.469Z,97.10
2023-05-04T23:41:48.137Z,97.30
2023-05-04T23:44:14.792Z,97.50
2023-05-04T23:46:41.427Z,97.70
2023-05-04T23:49:08.027Z,97.90
2023-05-04T23:51:34.706Z,98.00
2023-05-04T23:54:01.357Z,98.20
2023-05-04T23:56:28.514Z,98.40
2023-05-04T23:58:55.200Z,98.60
